Time;durP1;ratioP1;P1;durP2;ratioP2;P2;SDS_P1;SDS_P2;PMS_P1;PMS_P2;Temp;Humidity;BMP_temperature;BMP_pressure;BME280_temperature;BME280_humidity;BME280_pressure;Samples;Min_cycle;Max_cycle;Signal;HPM_P1;HPM_P2
2022/01/04 00:01:14;;;;;;;;;;;20.30;40.50;;;;;;482642;243;1185;-46
2022/01/04 00:03:15;;;;;;;;;;;20.30;40.40;;;;;;482502;246;1288;-47
2022/01/04 00:05:16;;;;;;;;;;;20.30;40.40;;;;;;482264;246;1276;-47
2022/01/04 00:07:17;;;;;;;;;;;20.30;40.50;;;;;;482282;246;1166;-46
2022/01/04 00:09:19;;;;;;;;;;;20.30;40.60;;;;;;482305;246;1013;-46
2022/01/04 00:11:31;;;;;;;;;;;20.30;40.60;;;;;;482233;246;1315;-46
2022/01/04 00:13:23;;;;;;;;;;;20.30;40.60;;;;;;481697;247;1555;-46
2022/01/04 00:15:23;;;;;;;;;;;20.30;40.60;;;;;;482657;246;2188;-46
2022/01/04 00:17:25;;;;;;;;;;;20.30;40.60;;;;;;482611;246;1330;-46
2022/01/04 00:19:26;;;;;;;;;;;20.30;40.50;;;;;;482255;246;1186;-46
2022/01/04 00:21:27;;;;;;;;;;;20.30;40.60;;;;;;482335;246;1234;-46
2022/01/04 00:23:29;;;;;;;;;;;20.30;40.50;;;;;;482405;246;1194;-46
2022/01/04 00:25:30;;;;;;;;;;;20.30;40.50;;;;;;482551;246;1062;-46
2022/01/04 00:27:31;;;;;;;;;;;20.20;40.60;;;;;;482124;246;1214;-47
2022/01/04 00:29:32;;;;;;;;;;;20.20;40.60;;;;;;482699;246;1180;-46
2022/01/04 00:31:34;;;;;;;;;;;20.20;40.60;;;;;;482143;246;1331;-46
2022/01/04 00:33:36;;;;;;;;;;;20.20;40.60;;;;;;482664;246;1229;-46
2022/01/04 00:35:36;;;;;;;;;;;20.20;40.50;;;;;;482144;247;2196;-46
2022/01/04 00:37:38;;;;;;;;;;;20.30;40.60;;;;;;482152;246;1699;-46
2022/01/04 00:39:39;;;;;;;;;;;20.30;40.60;;;;;;482283;246;1062;-46
2022/01/04 00:41:40;;;;;;;;;;;20.30;40.50;;;;;;482233;246;1211;-46
2022/01/04 00:43:44;;;;;;;;;;;20.30;40.50;;;;;;482710;246;1070;-46
2022/01/04 00:45:45;;;;;;;;;;;20.30;40.60;;;;;;482568;247;2433;-46
2022/01/04 00:49:09;;;;;;;;;;;20.20;40.50;;;;;;482109;247;1389;-47
2022/01/04 00:49:47;;;;;;;;;;;20.20;40.60;;;;;;480947;247;1305;-46
2022/01/04 00:51:48;;;;;;;;;;;20.20;40.60;;;;;;482526;246;1587;-46
2022/01/04 00:53:49;;;;;;;;;;;20.20;40.70;;;;;;482219;246;1325;-46
2022/01/04 00:55:51;;;;;;;;;;;20.20;40.60;;;;;;482558;246;2173;-46
2022/01/04 00:57:52;;;;;;;;;;;20.20;40.60;;;;;;482263;246;1179;-46
2022/01/04 00:59:53;;;;;;;;;;;20.20;40.50;;;;;;482716;246;1370;-46
2022/01/04 01:01:55;;;;;;;;;;;20.20;40.50;;;;;;482316;246;1217;-47
2022/01/04 01:03:56;;;;;;;;;;;20.20;40.50;;;;;;482247;246;1099;-46
2022/01/04 01:05:57;;;;;;;;;;;20.20;40.50;;;;;;482540;246;1599;-46
2022/01/04 01:07:58;;;;;;;;;;;20.20;40.50;;;;;;482606;246;1071;-46
2022/01/04 01:10:10;;;;;;;;;;;20.20;40.50;;;;;;482366;246;1107;-46
2022/01/04 01:12:02;;;;;;;;;;;20.20;40.50;;;;;;481610;247;2329;-46
2022/01/04 01:14:03;;;;;;;;;;;20.20;40.60;;;;;;482713;246;1037;-46
2022/01/04 01:16:05;;;;;;;;;;;20.20;40.60;;;;;;482316;246;2184;-47
2022/01/04 01:18:06;;;;;;;;;;;20.20;40.60;;;;;;482268;246;1130;-46
2022/01/04 01:20:07;;;;;;;;;;;20.20;40.60;;;;;;482328;246;1135;-46
2022/01/04 01:22:09;;;;;;;;;;;20.20;40.60;;;;;;482203;246;1172;-46
2022/01/04 01:24:10;;;;;;;;;;;20.20;40.70;;;;;;482732;246;1255;-46
2022/01/04 01:26:11;;;;;;;;;;;20.10;40.70;;;;;;482651;246;1492;-46
2022/01/04 01:28:14;;;;;;;;;;;20.10;40.80;;;;;;482390;246;1315;-46
2022/01/04 01:30:14;;;;;;;;;;;20.10;40.70;;;;;;482476;247;2086;-46
2022/01/04 01:32:15;;;;;;;;;;;20.20;40.70;;;;;;482133;246;1235;-47
2022/01/04 01:34:16;;;;;;;;;;;20.20;40.70;;;;;;482277;246;1202;-46
2022/01/04 01:36:18;;;;;;;;;;;20.10;40.70;;;;;;482568;246;2193;-46
2022/01/04 01:38:19;;;;;;;;;;;20.20;40.70;;;;;;482675;246;1339;-47
2022/01/04 01:40:20;;;;;;;;;;;20.20;40.60;;;;;;482706;246;1241;-46
2022/01/04 01:42:23;;;;;;;;;;;20.10;40.70;;;;;;482270;246;1219;-47
2022/01/04 01:44:23;;;;;;;;;;;20.20;40.70;;;;;;482269;246;2276;-46
2022/01/04 01:46:24;;;;;;;;;;;20.10;40.80;;;;;;482197;246;1294;-46
2022/01/04 01:48:26;;;;;;;;;;;20.10;40.90;;;;;;482407;246;1248;-46
2022/01/04 01:50:27;;;;;;;;;;;20.10;40.90;;;;;;482411;246;1445;-46
2022/01/04 01:52:28;;;;;;;;;;;20.10;40.80;;;;;;482187;246;1183;-46
2022/01/04 01:54:30;;;;;;;;;;;20.20;40.80;;;;;;482566;246;1145;-46
2022/01/04 01:56:31;;;;;;;;;;;20.10;40.70;;;;;;482351;246;2196;-46
2022/01/04 01:58:32;;;;;;;;;;;20.10;40.70;;;;;;482419;246;1201;-47
2022/01/04 02:00:34;;;;;;;;;;;20.20;40.60;;;;;;482702;246;1373;-46
2022/01/04 02:02:35;;;;;;;;;;;20.40;40.20;;;;;;482177;246;1505;-46
2022/01/04 02:04:36;;;;;;;;;;;20.60;39.70;;;;;;482736;246;1038;-47
2022/01/04 02:06:37;;;;;;;;;;;20.80;39.40;;;;;;482583;246;1324;-47
2022/01/04 02:08:39;;;;;;;;;;;20.90;39.10;;;;;;482258;246;1184;-46
2022/01/04 02:10:40;;;;;;;;;;;21.00;38.90;;;;;;482626;246;1162;-46
2022/01/04 02:12:42;;;;;;;;;;;21.10;38.60;;;;;;482225;246;1301;-46
2022/01/04 02:14:43;;;;;;;;;;;21.20;38.50;;;;;;482266;246;2155;-47
2022/01/04 02:16:44;;;;;;;;;;;21.30;38.40;;;;;;482353;246;2189;-46
2022/01/04 02:18:45;;;;;;;;;;;21.40;38.30;;;;;;482253;246;1100;-47
2022/01/04 02:20:47;;;;;;;;;;;21.40;38.20;;;;;;482412;246;1214;-47
2022/01/04 02:22:49;;;;;;;;;;;21.40;38.10;;;;;;482150;246;1210;-47
2022/01/04 02:24:50;;;;;;;;;;;21.50;38.10;;;;;;482193;246;2391;-47
2022/01/04 02:26:51;;;;;;;;;;;21.50;38.00;;;;;;482188;246;1389;-46
2022/01/04 02:28:52;;;;;;;;;;;21.60;37.90;;;;;;482283;246;1223;-46
2022/01/04 02:30:53;;;;;;;;;;;21.60;37.90;;;;;;482515;246;1291;-47
2022/01/04 02:32:55;;;;;;;;;;;21.60;37.80;;;;;;482437;246;1138;-46
2022/01/04 02:34:56;;;;;;;;;;;21.60;37.80;;;;;;482236;246;1216;-47
2022/01/04 02:36:57;;;;;;;;;;;21.70;37.70;;;;;;482178;244;2180;-47
2022/01/04 02:38:59;;;;;;;;;;;21.70;37.70;;;;;;482238;246;1192;-47
2022/01/04 02:41:00;;;;;;;;;;;21.80;37.70;;;;;;482536;246;1473;-47
2022/01/04 02:43:01;;;;;;;;;;;21.80;37.60;;;;;;482560;246;1235;-46
2022/01/04 02:45:03;;;;;;;;;;;21.80;37.60;;;;;;482705;246;1254;-47
2022/01/04 02:47:04;;;;;;;;;;;21.80;37.50;;;;;;482506;246;1140;-47
2022/01/04 02:49:05;;;;;;;;;;;21.90;37.50;;;;;;482727;246;1217;-47
2022/01/04 02:51:07;;;;;;;;;;;21.90;37.50;;;;;;482206;246;1180;-46
2022/01/04 02:53:08;;;;;;;;;;;21.90;37.40;;;;;;482557;246;1093;-46
2022/01/04 02:55:09;;;;;;;;;;;21.90;37.40;;;;;;482597;246;1087;-47
2022/01/04 02:57:11;;;;;;;;;;;21.90;37.40;;;;;;482362;246;2133;-46
2022/01/04 02:59:12;;;;;;;;;;;22.00;37.40;;;;;;482375;246;1217;-46
2022/01/04 03:01:13;;;;;;;;;;;22.00;37.40;;;;;;482226;246;1219;-47
2022/01/04 03:03:14;;;;;;;;;;;22.00;37.40;;;;;;482239;246;1733;-47
2022/01/04 03:05:16;;;;;;;;;;;22.00;37.30;;;;;;482309;246;1147;-46
2022/01/04 03:07:17;;;;;;;;;;;22.00;37.30;;;;;;482303;246;1176;-47
2022/01/04 03:09:18;;;;;;;;;;;22.00;37.30;;;;;;482513;246;1228;-47
2022/01/04 03:11:20;;;;;;;;;;;22.10;37.30;;;;;;482214;246;1206;-47
2022/01/04 03:13:21;;;;;;;;;;;22.00;37.20;;;;;;482509;246;1204;-47
2022/01/04 03:15:22;;;;;;;;;;;22.10;37.30;;;;;;482686;246;1494;-46
2022/01/04 03:17:24;;;;;;;;;;;22.10;37.20;;;;;;482090;246;2180;-47
2022/01/04 03:19:25;;;;;;;;;;;22.10;37.20;;;;;;482693;246;1007;-46
2022/01/04 03:21:26;;;;;;;;;;;22.10;37.20;;;;;;482282;246;1211;-47
2022/01/04 03:23:28;;;;;;;;;;;22.10;37.20;;;;;;482229;246;1222;-47
2022/01/04 03:25:29;;;;;;;;;;;22.10;37.20;;;;;;482259;246;1073;-47
2022/01/04 03:27:30;;;;;;;;;;;22.10;37.10;;;;;;482284;246;1255;-47
2022/01/04 03:29:32;;;;;;;;;;;22.20;37.20;;;;;;482393;246;1270;-47
2022/01/04 03:31:33;;;;;;;;;;;22.20;37.20;;;;;;482244;246;1719;-47
2022/01/04 03:33:34;;;;;;;;;;;22.20;37.10;;;;;;482332;246;1232;-46
2022/01/04 03:35:35;;;;;;;;;;;22.20;37.10;;;;;;482340;246;1137;-47
2022/01/04 03:37:37;;;;;;;;;;;22.20;37.10;;;;;;482368;246;2192;-47
2022/01/04 03:39:38;;;;;;;;;;;22.20;37.10;;;;;;482417;246;1078;-46
2022/01/04 03:41:39;;;;;;;;;;;22.20;37.10;;;;;;482208;246;1333;-47
2022/01/04 03:43:41;;;;;;;;;;;22.20;37.10;;;;;;482402;246;1191;-46
2022/01/04 03:45:42;;;;;;;;;;;22.20;37.10;;;;;;482592;246;1160;-46
2022/01/04 03:47:43;;;;;;;;;;;22.30;37.10;;;;;;482214;246;1207;-46
2022/01/04 03:49:45;;;;;;;;;;;22.30;37.00;;;;;;482405;246;1269;-46
2022/01/04 03:51:46;;;;;;;;;;;22.30;37.10;;;;;;482227;243;1490;-47
2022/01/04 03:53:47;;;;;;;;;;;22.30;37.10;;;;;;482212;246;1108;-47
2022/01/04 03:55:49;;;;;;;;;;;22.30;37.10;;;;;;482665;246;1414;-47
2022/01/04 03:57:50;;;;;;;;;;;22.30;37.00;;;;;;482629;246;2117;-47
2022/01/04 03:59:51;;;;;;;;;;;22.30;37.00;;;;;;482297;246;1097;-47
2022/01/04 04:01:52;;;;;;;;;;;22.30;37.00;;;;;;482470;246;1254;-47
2022/01/04 04:03:54;;;;;;;;;;;22.30;37.00;;;;;;482581;246;1271;-47
2022/01/04 04:05:55;;;;;;;;;;;22.30;37.00;;;;;;482470;246;1343;-46
2022/01/04 04:07:56;;;;;;;;;;;22.30;37.00;;;;;;482144;246;1242;-47
2022/01/04 04:09:58;;;;;;;;;;;22.40;37.00;;;;;;482664;246;1109;-47
2022/01/04 04:11:59;;;;;;;;;;;22.30;37.00;;;;;;482197;246;1225;-47
2022/01/04 04:14:00;;;;;;;;;;;22.40;37.00;;;;;;482272;246;1230;-47
2022/01/04 04:16:02;;;;;;;;;;;22.40;37.00;;;;;;482153;246;1427;-46
2022/01/04 04:18:03;;;;;;;;;;;22.40;37.00;;;;;;482313;246;2189;-47
2022/01/04 04:20:04;;;;;;;;;;;22.40;37.00;;;;;;482355;246;1196;-47
2022/01/04 04:22:06;;;;;;;;;;;22.40;37.00;;;;;;482326;246;1343;-47
2022/01/04 04:24:07;;;;;;;;;;;22.40;37.00;;;;;;482252;246;1271;-47
2022/01/04 04:26:08;;;;;;;;;;;22.40;37.00;;;;;;482394;246;1505;-47
2022/01/04 04:28:10;;;;;;;;;;;22.40;37.00;;;;;;482523;246;1550;-46
2022/01/04 04:30:11;;;;;;;;;;;22.40;37.00;;;;;;482727;246;1058;-47
2022/01/04 04:32:12;;;;;;;;;;;22.40;36.90;;;;;;482238;246;1199;-46
2022/01/04 04:34:14;;;;;;;;;;;22.50;37.00;;;;;;482586;246;1269;-47
2022/01/04 04:36:15;;;;;;;;;;;22.50;37.00;;;;;;482470;246;2177;-46
2022/01/04 04:38:16;;;;;;;;;;;22.50;37.00;;;;;;482297;246;1242;-47
2022/01/04 04:40:18;;;;;;;;;;;22.50;37.00;;;;;;482687;246;971;-47
2022/01/04 04:42:19;;;;;;;;;;;22.50;37.00;;;;;;482181;246;1660;-47
2022/01/04 04:44:20;;;;;;;;;;;22.50;37.00;;;;;;482389;246;1068;-47
2022/01/04 04:46:21;;;;;;;;;;;22.50;37.00;;;;;;482260;246;1508;-47
2022/01/04 04:48:24;;;;;;;;;;;22.50;37.00;;;;;;482313;246;1207;-46
2022/01/04 04:50:24;;;;;;;;;;;22.50;37.00;;;;;;482293;246;1772;-46
2022/01/04 04:52:25;;;;;;;;;;;22.50;37.00;;;;;;482095;246;1488;-47
2022/01/04 04:54:27;;;;;;;;;;;22.50;37.00;;;;;;482291;246;1174;-47
2022/01/04 04:56:28;;;;;;;;;;;22.50;36.90;;;;;;482143;246;2137;-46
2022/01/04 04:58:29;;;;;;;;;;;22.50;37.00;;;;;;482498;246;1226;-46
2022/01/04 05:00:31;;;;;;;;;;;22.50;36.90;;;;;;482259;246;1439;-47
2022/01/04 05:02:32;;;;;;;;;;;22.50;37.00;;;;;;482272;246;1677;-46
2022/01/04 05:04:33;;;;;;;;;;;22.50;36.90;;;;;;482263;246;1141;-46
2022/01/04 05:06:35;;;;;;;;;;;22.60;36.90;;;;;;482270;246;1338;-47
2022/01/04 05:08:36;;;;;;;;;;;22.50;36.90;;;;;;482246;246;1128;-47
2022/01/04 05:10:37;;;;;;;;;;;22.60;37.00;;;;;;482370;246;1134;-47
2022/01/04 05:12:39;;;;;;;;;;;22.60;37.00;;;;;;482240;246;1232;-46
2022/01/04 05:14:45;;;;;;;;;;;22.60;36.90;;;;;;482273;246;1070;-46
2022/01/04 05:16:41;;;;;;;;;;;22.60;36.90;;;;;;481775;247;2193;-47
2022/01/04 05:18:43;;;;;;;;;;;22.60;37.00;;;;;;482440;246;1138;-46
2022/01/04 05:20:44;;;;;;;;;;;22.60;36.90;;;;;;482257;246;1218;-47
2022/01/04 05:22:45;;;;;;;;;;;22.60;36.90;;;;;;482142;246;1133;-47
2022/01/04 05:24:46;;;;;;;;;;;22.60;36.90;;;;;;482274;246;996;-47
2022/01/04 05:26:48;;;;;;;;;;;22.60;36.90;;;;;;482288;246;1515;-47
2022/01/04 05:28:49;;;;;;;;;;;22.60;36.90;;;;;;482324;246;1269;-47
2022/01/04 05:30:50;;;;;;;;;;;22.60;36.90;;;;;;482648;243;1646;-46
2022/01/04 05:32:52;;;;;;;;;;;22.60;36.90;;;;;;482151;246;1272;-47
2022/01/04 05:34:53;;;;;;;;;;;22.70;36.90;;;;;;482195;246;1118;-46
2022/01/04 05:36:54;;;;;;;;;;;22.70;36.90;;;;;;482075;246;2197;-47
2022/01/04 05:38:56;;;;;;;;;;;22.60;36.90;;;;;;482181;246;1067;-47
2022/01/04 05:40:57;;;;;;;;;;;22.60;37.10;;;;;;482134;246;1552;-47
2022/01/04 05:42:58;;;;;;;;;;;22.50;37.20;;;;;;482355;246;1173;-46
2022/01/04 05:45:00;;;;;;;;;;;22.20;37.70;;;;;;482616;246;1094;-47
2022/01/04 05:47:01;;;;;;;;;;;22.10;38.20;;;;;;482115;246;1172;-47
2022/01/04 05:49:03;;;;;;;;;;;21.80;38.40;;;;;;482692;246;1083;-46
2022/01/04 05:51:03;;;;;;;;;;;21.70;38.80;;;;;;482107;247;2362;-46
2022/01/04 05:53:05;;;;;;;;;;;21.60;38.90;;;;;;482412;246;1039;-46
2022/01/04 05:55:06;;;;;;;;;;;21.50;39.10;;;;;;482588;246;1061;-46
2022/01/04 05:57:07;;;;;;;;;;;21.40;39.20;;;;;;482527;246;2189;-47
2022/01/04 05:59:09;;;;;;;;;;;21.40;39.40;;;;;;482326;246;1051;-46
2022/01/04 06:01:10;;;;;;;;;;;21.40;39.40;;;;;;482234;246;1178;-47
2022/01/04 06:03:11;;;;;;;;;;;21.30;39.50;;;;;;482154;246;1392;-46
2022/01/04 06:05:13;;;;;;;;;;;21.30;39.60;;;;;;482289;246;1165;-47
2022/01/04 06:07:14;;;;;;;;;;;21.30;39.70;;;;;;482179;246;1570;-46
2022/01/04 06:09:21;;;;;;;;;;;21.20;39.70;;;;;;482406;246;1076;-47
2022/01/04 06:11:43;;;;;;;;;;;21.20;39.60;;;;;;481951;247;2237;-46
2022/01/04 06:15:52;;;;;;;;;;;21.10;39.80;;;;;;482031;247;1215;-46
2022/01/04 06:17:53;;;;;;;;;;;21.20;39.80;;;;;;482392;246;2196;-46
2022/01/04 06:19:55;;;;;;;;;;;21.10;39.80;;;;;;482413;246;1124;-46
2022/01/04 06:21:57;;;;;;;;;;;21.10;40.00;;;;;;482192;246;1212;-46
2022/01/04 06:23:58;;;;;;;;;;;21.00;40.20;;;;;;482163;246;1055;-47
2022/01/04 06:25:59;;;;;;;;;;;21.00;40.10;;;;;;482476;246;1182;-46
2022/01/04 06:28:01;;;;;;;;;;;21.00;40.10;;;;;;482519;246;1246;-47
2022/01/04 06:30:02;;;;;;;;;;;21.00;40.10;;;;;;482389;246;1141;-46
2022/01/04 06:32:04;;;;;;;;;;;21.00;40.10;;;;;;482053;246;1276;-46
2022/01/04 06:34:05;;;;;;;;;;;21.00;40.20;;;;;;482084;246;1215;-46
2022/01/04 06:36:06;;;;;;;;;;;20.90;40.30;;;;;;482083;246;1215;-46
2022/01/04 06:38:08;;;;;;;;;;;20.90;40.30;;;;;;482088;246;2145;-46
2022/01/04 06:40:09;;;;;;;;;;;20.90;40.30;;;;;;482173;246;1018;-46
2022/01/04 06:42:11;;;;;;;;;;;20.80;40.30;;;;;;482023;246;1231;-46
2022/01/04 06:44:12;;;;;;;;;;;20.80;40.30;;;;;;482228;246;2401;-46
2022/01/04 06:46:13;;;;;;;;;;;20.80;40.30;;;;;;482026;246;1507;-46
2022/01/04 06:48:14;;;;;;;;;;;20.80;40.40;;;;;;482153;246;1218;-46
2022/01/04 06:50:18;;;;;;;;;;;20.80;40.40;;;;;;482199;246;1317;-46
2022/01/04 06:52:17;;;;;;;;;;;20.80;40.40;;;;;;481962;247;1375;-46
2022/01/04 06:54:18;;;;;;;;;;;20.80;40.50;;;;;;482091;246;1109;-47
2022/01/04 06:56:20;;;;;;;;;;;20.80;40.50;;;;;;482217;246;1447;-46
2022/01/04 06:58:21;;;;;;;;;;;20.80;40.50;;;;;;482095;246;2208;-46
2022/01/04 07:00:22;;;;;;;;;;;20.80;40.50;;;;;;482553;246;1059;-47
2022/01/04 07:02:24;;;;;;;;;;;20.80;40.50;;;;;;482051;246;1193;-46
2022/01/04 07:04:25;;;;;;;;;;;20.70;40.50;;;;;;482128;246;1087;-47
2022/01/04 07:06:27;;;;;;;;;;;20.70;40.50;;;;;;482034;246;1290;-46
2022/01/04 07:08:28;;;;;;;;;;;20.70;40.50;;;;;;482024;246;1165;-46
2022/01/04 07:10:29;;;;;;;;;;;20.70;40.70;;;;;;482066;246;1485;-46
2022/01/04 07:12:30;;;;;;;;;;;20.60;40.70;;;;;;481986;246;1362;-47
2022/01/04 07:14:32;;;;;;;;;;;20.60;40.70;;;;;;482173;246;1044;-46
2022/01/04 07:16:33;;;;;;;;;;;20.70;40.70;;;;;;481896;246;1462;-46
2022/01/04 07:18:34;;;;;;;;;;;20.60;40.70;;;;;;482047;246;2196;-46
2022/01/04 07:20:36;;;;;;;;;;;20.70;40.70;;;;;;482089;246;1501;-47
2022/01/04 07:22:37;;;;;;;;;;;20.70;40.60;;;;;;482020;246;1249;-46
2022/01/04 07:24:38;;;;;;;;;;;20.70;40.60;;;;;;482146;246;1150;-46
2022/01/04 07:26:40;;;;;;;;;;;20.70;40.60;;;;;;482069;246;1450;-46
2022/01/04 07:28:41;;;;;;;;;;;20.70;40.60;;;;;;482322;246;1234;-46
2022/01/04 07:30:43;;;;;;;;;;;20.70;40.50;;;;;;482092;246;1341;-45
2022/01/04 07:32:44;;;;;;;;;;;20.70;40.50;;;;;;482050;246;1155;-46
2022/01/04 07:34:45;;;;;;;;;;;20.70;40.70;;;;;;482114;246;1266;-47
2022/01/04 07:36:47;;;;;;;;;;;20.60;40.70;;;;;;481935;246;1128;-46
2022/01/04 07:38:48;;;;;;;;;;;20.60;40.60;;;;;;482004;246;2188;-46
2022/01/04 07:40:49;;;;;;;;;;;20.60;40.70;;;;;;481926;246;1340;-46
2022/01/04 07:42:51;;;;;;;;;;;20.60;40.70;;;;;;482199;246;1100;-47
2022/01/04 07:44:52;;;;;;;;;;;20.60;40.80;;;;;;482105;246;1263;-46
2022/01/04 07:46:53;;;;;;;;;;;20.60;40.70;;;;;;481906;246;1315;-47
2022/01/04 07:48:55;;;;;;;;;;;20.60;40.70;;;;;;481956;246;1070;-46
2022/01/04 07:50:58;;;;;;;;;;;20.60;40.70;;;;;;481847;246;1303;-46
2022/01/04 07:52:57;;;;;;;;;;;20.50;40.80;;;;;;482191;247;2404;-46
2022/01/04 07:54:59;;;;;;;;;;;20.60;40.80;;;;;;481923;246;1035;-46
2022/01/04 07:57:00;;;;;;;;;;;20.50;40.80;;;;;;481950;246;1545;-46
2022/01/04 07:59:03;;;;;;;;;;;20.50;40.80;;;;;;482050;246;2184;-46
2022/01/04 08:01:03;;;;;;;;;;;20.50;40.80;;;;;;482118;246;2346;-46
2022/01/04 08:03:06;;;;;;;;;;;20.50;40.80;;;;;;482123;246;1209;-46
2022/01/04 08:05:05;;;;;;;;;;;20.50;40.90;;;;;;481983;247;2314;-46
2022/01/04 08:07:07;;;;;;;;;;;20.50;40.80;;;;;;481907;246;1195;-46
2022/01/04 08:09:08;;;;;;;;;;;20.50;40.90;;;;;;482145;246;1130;-46
2022/01/04 08:11:09;;;;;;;;;;;20.50;40.90;;;;;;482424;246;1357;-46
2022/01/04 08:13:11;;;;;;;;;;;20.50;40.90;;;;;;482030;246;1022;-46
2022/01/04 08:15:12;;;;;;;;;;;20.50;40.90;;;;;;482120;246;1176;-46
2022/01/04 08:17:13;;;;;;;;;;;20.50;40.90;;;;;;482007;246;1499;-46
2022/01/04 08:19:15;;;;;;;;;;;20.50;40.90;;;;;;482290;246;2185;-46
2022/01/04 08:21:16;;;;;;;;;;;20.50;40.90;;;;;;482057;246;1167;-46
2022/01/04 08:23:17;;;;;;;;;;;20.50;41.00;;;;;;482002;246;1110;-46
2022/01/04 08:25:19;;;;;;;;;;;20.40;41.00;;;;;;482007;246;1144;-46
2022/01/04 08:27:20;;;;;;;;;;;20.40;41.00;;;;;;481953;246;1555;-45
2022/01/04 08:29:21;;;;;;;;;;;20.40;41.00;;;;;;481946;247;1228;-46
2022/01/04 08:31:23;;;;;;;;;;;20.40;41.00;;;;;;481916;246;1343;-46
2022/01/04 08:33:24;;;;;;;;;;;20.40;41.00;;;;;;481950;246;1217;-47
2022/01/04 08:35:25;;;;;;;;;;;20.40;41.10;;;;;;482340;246;1045;-46
2022/01/04 08:37:27;;;;;;;;;;;20.40;41.10;;;;;;481834;246;1226;-46
2022/01/04 08:39:28;;;;;;;;;;;20.40;41.00;;;;;;482019;246;2193;-45
2022/01/04 08:41:29;;;;;;;;;;;20.40;40.90;;;;;;481797;246;1250;-46
2022/01/04 08:43:31;;;;;;;;;;;20.40;41.00;;;;;;481843;246;1175;-47
2022/01/04 08:45:32;;;;;;;;;;;20.30;41.00;;;;;;481869;246;1245;-47
2022/01/04 08:47:33;;;;;;;;;;;20.40;41.00;;;;;;481905;246;1571;-46
2022/01/04 08:49:35;;;;;;;;;;;20.40;41.10;;;;;;481990;246;1097;-46
2022/01/04 08:51:36;;;;;;;;;;;20.30;41.00;;;;;;481939;246;1482;-46
2022/01/04 08:53:37;;;;;;;;;;;20.40;41.10;;;;;;481906;246;1221;-46
2022/01/04 08:55:39;;;;;;;;;;;20.40;41.00;;;;;;481818;246;1385;-47
2022/01/04 08:57:40;;;;;;;;;;;20.40;41.00;;;;;;481739;246;1286;-46
2022/01/04 08:59:41;;;;;;;;;;;20.30;41.00;;;;;;481899;246;2133;-47
2022/01/04 09:01:42;;;;;;;;;;;20.40;41.00;;;;;;481884;246;1187;-46
2022/01/04 09:03:44;;;;;;;;;;;20.40;41.00;;;;;;481991;246;1324;-46
2022/01/04 09:05:45;;;;;;;;;;;20.40;41.00;;;;;;481898;246;1324;-46
2022/01/04 09:07:46;;;;;;;;;;;20.40;41.00;;;;;;481853;246;1746;-47
2022/01/04 09:09:49;;;;;;;;;;;20.40;41.10;;;;;;481790;246;1197;-46
2022/01/04 09:11:49;;;;;;;;;;;20.30;41.10;;;;;;481013;247;1341;-47
2022/01/04 09:13:54;;;;;;;;;;;20.30;41.20;;;;;;482096;246;1069;-46
2022/01/04 09:20:31;;;;;;;;;;;20.30;41.20;;;;;;481964;247;1548;-46
2022/01/04 09:22:32;;;;;;;;;;;20.30;41.20;;;;;;481844;246;1238;-46
2022/01/04 09:24:33;;;;;;;;;;;20.40;41.20;;;;;;482029;246;1030;-46
2022/01/04 09:26:35;;;;;;;;;;;20.40;41.10;;;;;;481807;246;1528;-46
2022/01/04 09:28:37;;;;;;;;;;;20.40;41.20;;;;;;481937;246;1238;-46
2022/01/04 09:30:38;;;;;;;;;;;20.40;41.20;;;;;;481777;246;1359;-46
2022/01/04 09:32:39;;;;;;;;;;;20.40;41.20;;;;;;481858;246;1183;-46
2022/01/04 09:34:41;;;;;;;;;;;20.30;41.20;;;;;;481937;246;1252;-46
2022/01/04 09:36:42;;;;;;;;;;;20.30;41.30;;;;;;481924;246;1233;-46
2022/01/04 09:38:43;;;;;;;;;;;20.30;41.30;;;;;;481822;246;2199;-46
2022/01/04 09:40:45;;;;;;;;;;;20.30;41.30;;;;;;481809;246;1230;-47
2022/01/04 09:42:46;;;;;;;;;;;20.30;41.30;;;;;;481914;246;1477;-46
2022/01/04 09:44:47;;;;;;;;;;;20.30;41.50;;;;;;482052;246;1071;-47
2022/01/04 09:46:48;;;;;;;;;;;20.30;41.40;;;;;;481803;246;1563;-46
2022/01/04 09:48:50;;;;;;;;;;;20.30;41.40;;;;;;482060;246;1070;-46
2022/01/04 09:50:51;;;;;;;;;;;20.30;41.40;;;;;;482206;244;1199;-47
2022/01/04 09:52:53;;;;;;;;;;;20.30;41.40;;;;;;481922;246;1195;-46
2022/01/04 09:54:54;;;;;;;;;;;20.30;41.40;;;;;;481894;247;1101;-46
2022/01/04 09:56:55;;;;;;;;;;;20.30;41.40;;;;;;481845;246;1411;-46
2022/01/04 09:58:56;;;;;;;;;;;20.30;41.50;;;;;;481866;246;2253;-46
2022/01/04 10:00:58;;;;;;;;;;;20.30;41.40;;;;;;481901;246;1208;-46
2022/01/04 10:02:59;;;;;;;;;;;20.30;41.30;;;;;;482005;246;1195;-46
2022/01/04 10:05:00;;;;;;;;;;;20.30;41.40;;;;;;481917;246;1040;-46
2022/01/04 10:07:02;;;;;;;;;;;20.30;41.40;;;;;;481826;246;1259;-46
2022/01/04 10:09:04;;;;;;;;;;;20.30;41.50;;;;;;481909;246;1075;-46
2022/01/04 10:11:06;;;;;;;;;;;20.30;41.50;;;;;;481789;247;2281;-46
2022/01/04 10:13:06;;;;;;;;;;;20.30;41.50;;;;;;481799;247;2319;-46
2022/01/04 10:15:08;;;;;;;;;;;20.30;41.50;;;;;;482075;246;1045;-46
2022/01/04 10:17:09;;;;;;;;;;;20.30;41.50;;;;;;482001;246;2453;-47
2022/01/04 10:19:10;;;;;;;;;;;20.30;41.60;;;;;;481908;246;2126;-46
2022/01/04 10:21:12;;;;;;;;;;;20.30;41.60;;;;;;481809;246;1292;-47
2022/01/04 10:23:12;;;;;;;;;;;20.20;41.60;;;;;;481791;246;1480;-46
2022/01/04 10:25:15;;;;;;;;;;;20.20;41.60;;;;;;481943;246;1012;-46
2022/01/04 10:27:15;;;;;;;;;;;20.20;41.80;;;;;;481737;247;2048;-46
2022/01/04 10:29:16;;;;;;;;;;;20.20;41.70;;;;;;481960;246;1045;-47
2022/01/04 10:31:18;;;;;;;;;;;20.20;41.70;;;;;;481817;244;1206;-46
2022/01/04 10:33:19;;;;;;;;;;;20.20;41.80;;;;;;481854;246;1061;-47
2022/01/04 10:35:20;;;;;;;;;;;20.20;41.80;;;;;;482049;246;1101;-46
2022/01/04 10:37:22;;;;;;;;;;;20.30;41.80;;;;;;481844;246;1197;-45
2022/01/04 10:39:23;;;;;;;;;;;20.20;41.70;;;;;;481876;246;2197;-46
2022/01/04 10:41:26;;;;;;;;;;;20.20;41.90;;;;;;482043;243;1148;-46
2022/01/04 10:43:27;;;;;;;;;;;20.20;41.80;;;;;;481904;246;2260;-46
2022/01/04 10:45:27;;;;;;;;;;;20.20;41.80;;;;;;481882;247;2237;-46
2022/01/04 10:47:29;;;;;;;;;;;20.30;41.80;;;;;;481925;246;1285;-46
2022/01/04 10:49:32;;;;;;;;;;;20.20;41.80;;;;;;481961;247;2075;-46
2022/01/04 10:51:31;;;;;;;;;;;20.20;41.80;;;;;;481961;247;2369;-46
2022/01/04 10:53:32;;;;;;;;;;;20.20;41.80;;;;;;481935;246;1191;-46
2022/01/04 10:55:34;;;;;;;;;;;20.20;41.90;;;;;;482052;246;1236;-46
2022/01/04 10:57:35;;;;;;;;;;;20.20;41.90;;;;;;481866;246;1599;-46
2022/01/04 10:59:36;;;;;;;;;;;20.20;41.90;;;;;;482154;246;2185;-46
2022/01/04 11:01:38;;;;;;;;;;;20.20;41.90;;;;;;481949;246;1288;-46
2022/01/04 11:03:39;;;;;;;;;;;20.20;41.90;;;;;;481811;246;1095;-46
2022/01/04 11:05:41;;;;;;;;;;;20.10;41.80;;;;;;481939;246;1136;-46
2022/01/04 11:07:42;;;;;;;;;;;20.20;41.90;;;;;;481795;246;1300;-46
2022/01/04 11:09:43;;;;;;;;;;;20.10;42.00;;;;;;481895;246;1398;-46
2022/01/04 11:11:44;;;;;;;;;;;20.20;42.00;;;;;;481815;246;1253;-46
2022/01/04 11:13:48;;;;;;;;;;;20.20;41.90;;;;;;481948;246;1075;-46
2022/01/04 11:15:47;;;;;;;;;;;20.20;41.90;;;;;;481901;246;2335;-46
2022/01/04 11:17:49;;;;;;;;;;;20.20;41.90;;;;;;482328;246;1064;-46
2022/01/04 11:19:50;;;;;;;;;;;20.20;41.90;;;;;;482060;246;2129;-46
2022/01/04 11:21:52;;;;;;;;;;;20.20;41.90;;;;;;481999;246;1544;-47
2022/01/04 11:23:52;;;;;;;;;;;20.20;41.90;;;;;;481941;246;1464;-46
2022/01/04 11:25:54;;;;;;;;;;;20.20;41.90;;;;;;481926;246;1327;-46
2022/01/04 11:27:56;;;;;;;;;;;20.20;42.10;;;;;;481816;246;1180;-46
2022/01/04 11:29:58;;;;;;;;;;;20.10;42.00;;;;;;481831;246;1040;-46
2022/01/04 11:31:58;;;;;;;;;;;20.20;42.00;;;;;;481679;246;2141;-46
2022/01/04 11:34:00;;;;;;;;;;;20.20;42.00;;;;;;482294;246;1017;-46
2022/01/04 11:36:01;;;;;;;;;;;20.20;41.90;;;;;;481876;246;1179;-46
2022/01/04 11:38:02;;;;;;;;;;;20.20;41.90;;;;;;481877;246;1176;-47
2022/01/04 11:40:05;;;;;;;;;;;20.20;41.90;;;;;;482015;246;2184;-46
2022/01/04 11:42:06;;;;;;;;;;;20.20;42.00;;;;;;481708;247;2053;-46
2022/01/04 11:44:06;;;;;;;;;;;20.20;42.00;;;;;;481694;247;2205;-46
2022/01/04 11:46:08;;;;;;;;;;;20.20;42.00;;;;;;481793;246;1186;-46
2022/01/04 11:48:09;;;;;;;;;;;20.10;42.00;;;;;;481961;246;1099;-46
2022/01/04 11:50:11;;;;;;;;;;;20.20;41.90;;;;;;482029;246;1088;-46
2022/01/04 11:52:12;;;;;;;;;;;20.20;42.00;;;;;;481875;246;1143;-46
2022/01/04 11:54:13;;;;;;;;;;;20.10;42.10;;;;;;482073;246;1221;-46
2022/01/04 11:56:15;;;;;;;;;;;20.10;42.00;;;;;;481925;246;1193;-46
2022/01/04 11:58:17;;;;;;;;;;;20.10;41.90;;;;;;481889;246;1268;-46
2022/01/04 12:00:17;;;;;;;;;;;20.20;42.10;;;;;;481867;247;2185;-47
2022/01/04 12:02:19;;;;;;;;;;;20.10;42.00;;;;;;481748;246;1250;-46
2022/01/04 12:04:20;;;;;;;;;;;20.20;42.00;;;;;;481910;246;1082;-46